DW6206 Weather Reports


time (UTC)temp
C
wind
direction
speed
KPH
gust
KPH
rain 1hr
cm
rain 24hr
cm
rain mn
cm
humidity
%
barometer
mb
20200217013246 8 270 16.1 22.5 0.00 1.17 0.05 78 1006.0
20200217012230 8 180 16.1 25.7 0.00 1.17 0.05 78 1005.9
20200217011226 8 202 25.7 25.7 0.00 1.17 0.05 78 1005.6
20200217005218 8 292 9.7 22.5 0.00 1.17 0.05 80 1005.4
20200217004239 8 292 22.5 25.7 0.00 1.17 0.05 81 1004.9
20200217003236 8 225 9.7 25.7 0.00 1.17 0.05 82 1004.9
20200217002212 7 247 22.5 24.1 0.00 1.17 0.05 83 1004.8
20200217001156 7 270 9.7 16.1 0.00 1.17 0.05 83 1004.7
20200217000134 7 225 4.8 24.1 0.05 1.17 0.05 83 1004.6
20200216235144 7 270 20.9 24.1 0.05 1.17 0.00 83 1004.5
20200216234117 7 202 9.7 20.9 0.05 1.17 0.00 84 1003.6
20200216233112 7 225 14.5 29.0 0.10 1.17 0.00 84 1003.4
20200216232038 8 247 25.7 29.0 0.10 1.17 0.00 84 1003.8
20200216231045 8 270 11.3 22.5 0.15 1.17 0.00 85 1003.7
20200216230034 8 225 22.5 22.5 0.10 1.12 0.00 85 1003.8
20200216225001 8 157 9.7 17.7 0.15 1.12 1.12 85 1003.8
20200216223934 8 225 17.7 25.7 0.15 1.07 1.07 84 1003.5
20200216222956 8 247 6.4 25.7 0.20 1.07 1.07 84 1003.5
20200216221957 8 292 25.7 25.7 0.20 1.07 1.07 84 1003.1
20200216220948 8 292 11.3 14.5 0.15 1.02 1.02 84 1003.0
20200216215934 8 180 8.0 17.7 0.10 0.97 0.97 84 1003.2
20200216214935 8 225 12.9 17.7 0.10 0.97 0.97 84 1002.8
20200216213930 9 22 4.8 9.7 0.15 0.91 0.91 83 1002.6
20200216212910 9 270 6.4 16.1 0.10 0.86 0.86 83 1002.4
20200216211851 9 247 16.1 19.3 0.10 0.86 0.86 83 1002.2
20200216210859 9 225 12.9 19.3 0.15 0.86 0.86 82 1002.4
20200216205836 9 292 14.5 14.5 0.20 0.86 0.86 82 1002.3
20200216204841 9 247 4.8 12.9 0.20 0.81 0.81 81 1002.2
20200216203821 9 270 12.9 12.9 0.15 0.76 0.76 80 1002.1
20200216202751 10 247 11.3 16.1 0.15 0.76 0.76 79 1002.0
20200216201743 10 315 14.5 16.1 0.20 0.71 0.71 78 1001.8
20200216200744 10 247 12.9 12.9 0.15 0.66 0.66 76 1001.5
20200216195745 10 315 16.1 16.1 0.15 0.61 0.61 75 1001.1
20200216194714 10 247 4.8 20.9 0.15 0.61 0.61 74 1000.7
20200216193723 11 292 20.9 35.4 0.15 0.61 0.61 72 1000.7
20200216192728 12 270 4.8 35.4 0.15 0.61 0.61 69 1000.4
20200216191716 13 292 9.7 20.9 0.10 0.56 0.56 66 999.6
20200216190718 16 337 9.7 30.6 0.00 0.46 0.46 58 999.3
20200216185711 17 270 20.9 54.7 0.00 0.46 0.46 55 996.1
20200216184642 17 225 22.5 54.7 0.00 0.46 0.46 55 995.8
20200216183611 17 202 20.9 49.9 0.00 0.46 0.46 55 995.6
20200216182623 17 247 33.8 49.9 0.00 0.46 0.46 55 995.3
20200216181620 17 292 24.1 30.6 0.00 0.46 0.46 54 995.1
20200216180626 17 247 19.3 49.9 0.00 0.46 0.46 54 995.2
20200216175611 17 247 22.5 49.9 0.00 0.46 0.46 54 995.2
20200216174624 17 67 14.5 30.6 0.00 0.46 0.46 54 995.5
20200216173555 17 135 14.5 30.6 0.00 0.46 0.46 54 995.5
20200216172554 17 180 20.9 33.8 0.00 0.46 0.46 54 995.5
20200216171605 17 270 20.9 33.8 0.00 0.46 0.46 54 996.0
20200216170553 17 90 20.9 33.8 0.00 0.46 0.46 54 996.3
20200216165556 17 225 17.7 33.8 0.00 0.46 0.46 54 996.5
20200216164520 17 180 25.7 40.2 0.00 0.46 0.46 55 996.4
20200216163527 17 247 29.0 40.2 0.00 0.46 0.46 55 996.8
20200216162544 17 247 22.5 29.0 0.00 0.46 0.46 57 996.9
20200216161550 17 180 12.9 29.0 0.00 0.46 0.46 58 997.1
20200216160515 17 247 17.7 27.4 0.00 0.46 0.46 59 997.3
20200216155525 17 67 1.6 27.4 0.00 0.46 0.46 60 997.2
20200216154515 16 337 6.4 20.9 0.00 0.46 0.46 62 997.4
20200216153440 16 247 17.7 20.9 0.00 0.46 0.46 62 997.4
20200216152438 16 157 12.9 20.9 0.00 0.46 0.46 62 997.3
20200216151459 16 225 14.5 24.1 0.00 0.46 0.46 62 997.6
20200216150436 16 247 16.1 30.6 0.00 0.46 0.46 62 997.4
20200216145424 16 247 27.4 30.6 0.00 0.46 0.46 62 997.5
20200216144405 16 247 25.7 25.7 0.00 0.46 0.46 62 997.5
20200216143353 16 292 11.3 19.3 0.00 0.46 0.46 62 997.3
20200216142330 16 225 12.9 20.9 0.00 0.46 0.46 63 997.6
20200216141333 16 270 19.3 25.7 0.00 0.46 0.46 63 997.9
20200216140325 16 247 12.9 41.8 0.00 0.46 0.46 62 998.1
20200216135313 16 157 9.7 41.8 0.00 0.46 0.46 62 998.1
20200216134336 15 247 24.1 24.1 0.00 0.46 0.46 61 998.0
20200216133319 15 270 14.5 20.9 0.00 0.46 0.46 61 998.4
20200216132336 15 270 17.7 22.5 0.00 0.46 0.46 60 998.5
20200216131322 15 292 22.5 22.5 0.00 0.46 0.46 60 998.5
20200216130325 15 225 16.1 22.5 0.00 0.46 0.46 60 998.2
20200216125332 15 157 14.5 30.6 0.00 0.46 0.46 61 998.4
20200216124301 15 225 20.9 30.6 0.00 0.46 0.46 62 998.4
20200216123250 15 225 8.0 29.0 0.00 0.46 0.46 62 998.5
20200216122249 15 202 11.3 29.0 0.00 0.46 0.46 62 999.0
20200216121244 15 225 25.7 37.0 0.00 0.46 0.46 62 999.2
20200216120254 15 202 14.5 37.0 0.00 0.46 0.46 62 999.4
20200216115223 15 247 25.7 25.7 0.00 0.46 0.46 62 999.8
20200216114244 15 270 16.1 27.4 0.00 0.46 0.46 61 1000.0
20200216113249 15 247 14.5 27.4 0.00 0.46 0.46 62 1000.1
20200216112306 15 247 17.7 25.7 0.00 0.46 0.46 62 1000.3
20200216111259 15 157 12.9 22.5 0.00 0.46 0.46 62 1000.4
20200216110255 15 225 12.9 22.5 0.00 0.46 0.46 63 1000.5
20200216105259 15 225 22.5 30.6 0.00 0.46 0.46 64 1000.3
20200216104234 14 202 27.4 30.6 0.00 0.46 0.46 65 1000.4
20200216103206 14 225 14.5 17.7 0.00 0.46 0.46 66 1000.8
20200216102129 13 157 17.7 30.6 0.00 0.46 0.46 66 1000.8
20200216101125 13 180 14.5 30.6 0.00 0.46 0.46 67 1000.7
20200216100116 13 202 6.4 24.1 0.00 0.46 0.46 67 1001.0
20200216095129 13 202 24.1 30.6 0.00 0.46 0.46 67 1001.0
20200216094103 13 135 24.1 40.2 0.00 0.46 0.46 68 1000.9
20200216093102 13 157 12.9 40.2 0.00 0.46 0.46 70 1000.8
20200216091043 13 247 22.5 29.0 0.00 0.46 0.46 74 1001.1
20200216090022 13 202 14.5 30.6 0.00 0.46 0.46 73 1001.3
20200216085038 13 292 12.9 30.6 0.00 0.46 0.46 72 1001.4
20200216084020 13 225 14.5 30.6 0.00 0.46 0.46 72 1001.2
20200216082947 13 225 11.3 25.7 0.00 0.46 0.46 73 1001.3
20200216082007 12 225 20.9 38.6 0.00 0.46 0.46 75 1001.5
20200216081016 12 247 20.9 38.6 0.00 0.46 0.46 77 1001.5
20200216080013 12 202 19.3 43.5 0.00 0.46 0.46 79 1001.5
20200216074941 12 135 22.5 43.5 0.05 0.46 0.46 82 1001.5
20200216073913 11 292 19.3 20.9 0.05 0.46 0.46 84 1001.7
20200216072925 11 202 20.9 24.1 0.10 0.46 0.46 85 1001.7
20200216071909 11 135 14.5 24.1 0.15 0.46 0.46 86 1001.8
20200216070836 11 247 12.9 24.1 0.15 0.46 0.46 87 1001.6
20200216065801 11 202 11.3 24.1 0.20 0.46 0.46 87 1001.9
20200216064724 11 270 14.5 17.7 0.15 0.41 0.41 86 1001.7
20200216063654 11 247 12.9 12.9 0.15 0.36 0.36 86 1002.1
20200216062715 11 202 11.3 17.7 0.20 0.36 0.36 86 1002.3
20200216061727 11 202 12.9 27.4 0.20 0.30 0.30 85 1002.5
20200216060726 11 292 16.1 27.4 0.20 0.30 0.30 84 1002.5
20200216055707 11 202 9.7 14.5 0.25 0.25 0.25 84 1002.7
20200216054642 11 135 11.3 14.5 0.20 0.20 0.20 83 1002.7
20200216053631 11 135 4.8 14.5 0.20 0.20 0.20 83 1002.8
20200216052624 11 225 11.3 14.5 0.15 0.15 0.15 81 1002.8
20200216051642 11 247 8.0 19.3 0.10 0.10 0.10 80 1002.9
20200216050631 11 135 4.8 19.3 0.10 0.10 0.10 78 1003.2
20200216045638 12 202 9.7 22.5 0.00 0.00 0.00 76 1003.0
20200216044653 12 135 12.9 27.4 0.00 0.00 0.00 73 1003.2
20200216043617 13 247 9.7 27.4 0.00 0.00 0.00 70 1003.1
20200216042621 13 202 12.9 20.9 0.00 0.00 0.00 66 1003.3
20200216041613 13 180 19.3 19.3 0.00 0.00 0.00 66 1003.3
20200216040605 13 202 12.9 25.7 0.00 0.00 0.00 66 1003.4
20200216035607 13 270 6.4 25.7 0.00 0.00 0.00 66 1003.7
20200216034605 13 225 9.7 24.1 0.00 0.00 0.00 66 1003.7
20200216033551 13 202 6.4 17.7 0.00 0.00 0.00 66 1003.8
20200216032540 13 225 9.7 20.9 0.00 0.00 0.00 66 1003.8
20200216031513 13 135 6.4 22.5 0.00 0.00 0.00 66 1003.8
20200216030448 12 202 19.3 29.0 0.00 0.00 0.00 66 1004.1
20200216025428 12 247 12.9 29.0 0.00 0.00 0.00 66 1004.4
20200216024401 12 202 11.3 22.5 0.00 0.00 0.00 66 1004.6
20200216023344 12 247 1.6 22.5 0.00 0.00 0.00 67 1004.7
20200216022349 12 180 8.0 27.4 0.00 0.00 0.00 67 1004.7
20200216021408 12 180 12.9 27.4 0.00 0.00 0.00 67 1004.8
20200216020408 12 247 9.7 17.7 0.00 0.00 0.00 67 1004.9
20200216015351 12 180 17.7 17.7 0.00 0.00 0.00 67 1004.7
20200216014349 12 180 17.7 17.7 0.00 0.00 0.00 67 1004.9